createdAt,value
2023-09-25T00:04:26.195Z,5.80
2023-09-25T00:14:30.192Z,4.25
2023-09-25T00:19:32.298Z,2.50
2023-09-25T00:29:36.200Z,1.80
2023-09-25T00:39:40.098Z,1.48
2023-09-25T00:44:42.052Z,1.40
2023-09-25T00:49:44.097Z,1.33
2023-09-25T00:59:48.033Z,1.17
2023-09-25T01:04:50.226Z,1.38
2023-09-25T01:15:13.367Z,1.58
2023-09-25T01:20:16.040Z,1.85
2023-09-25T01:25:18.890Z,1.63
2023-09-25T01:30:21.627Z,1.95
2023-09-25T01:35:23.865Z,2.03
2023-09-25T01:45:27.548Z,2.05
2023-09-25T01:50:29.862Z,1.98
2023-09-25T01:55:32.717Z,2.00
2023-09-25T02:00:34.699Z,1.60
2023-09-25T02:05:36.878Z,1.95
2023-09-25T02:15:40.821Z,2.50
2023-09-25T02:25:44.694Z,3.03
2023-09-25T02:30:46.852Z,3.88
2023-09-25T02:40:50.571Z,4.63
2023-09-25T02:45:52.812Z,5.50
2023-09-25T02:50:54.796Z,5.63
2023-09-25T02:55:56.890Z,6.45
2023-09-25T03:00:59.642Z,6.05
2023-09-25T03:06:01.861Z,6.13
2023-09-25T03:11:03.918Z,5.60
2023-09-25T03:16:13.829Z,5.50
2023-09-25T03:21:16.078Z,5.40
2023-09-25T03:31:20.336Z,4.90
2023-09-25T03:41:24.194Z,5.25
2023-09-25T03:46:26.243Z,5.63
2023-09-25T03:51:28.299Z,5.50
2023-09-25T03:56:30.573Z,6.22
2023-09-25T04:01:32.828Z,6.10
2023-09-25T04:06:35.056Z,5.70
2023-09-25T04:11:38.028Z,5.70
2023-09-25T04:16:40.196Z,5.90
2023-09-25T04:21:42.519Z,5.70
2023-09-25T04:31:46.886Z,5.63
2023-09-25T04:36:51.011Z,5.97
2023-09-25T04:41:52.949Z,6.22
2023-09-25T04:46:54.915Z,6.75
2023-09-25T04:51:56.893Z,6.43
2023-09-25T04:56:58.909Z,6.28
2023-09-25T05:02:02.088Z,6.55
2023-09-25T05:07:04.136Z,6.55
2023-09-25T05:12:06.813Z,5.97
2023-09-25T05:22:10.425Z,6.05
2023-09-25T05:27:12.523Z,4.95
2023-09-25T05:32:14.510Z,5.15
2023-09-25T05:37:16.472Z,6.22
2023-09-25T05:42:18.422Z,4.03
2023-09-25T05:47:20.479Z,4.65
2023-09-25T05:52:22.451Z,4.40
2023-09-25T05:57:24.452Z,4.22
2023-09-25T06:07:36.738Z,4.25
2023-09-25T06:17:41.262Z,3.88
2023-09-25T06:22:44.014Z,4.00
2023-09-25T06:27:46.140Z,4.38
2023-09-25T06:32:48.247Z,3.80
2023-09-25T06:42:52.095Z,3.90
2023-09-25T06:52:55.779Z,3.63
2023-09-25T07:02:59.509Z,3.80
2023-09-25T07:08:01.539Z,3.70
2023-09-25T07:18:05.788Z,3.47
2023-09-25T07:23:07.733Z,3.75
2023-09-25T07:28:09.774Z,3.60
2023-09-25T07:38:13.511Z,3.90
2023-09-25T07:43:16.274Z,3.42
2023-09-25T07:48:18.472Z,3.65
2023-09-25T07:53:20.473Z,3.47
2023-09-25T07:58:22.453Z,2.97
2023-09-25T08:08:26.225Z,2.95
2023-09-25T08:13:28.239Z,2.95
2023-09-25T08:23:31.965Z,3.30
2023-09-25T08:33:36.366Z,3.87
2023-09-25T08:43:40.020Z,3.28
2023-09-25T08:53:43.873Z,3.72
2023-09-25T08:58:45.849Z,3.05
2023-09-25T09:03:47.957Z,3.38
2023-09-25T09:08:52.064Z,3.30
2023-09-25T09:13:54.033Z,3.20
2023-09-25T09:19:08.771Z,3.35
2023-09-25T09:24:21.505Z,3.83
2023-09-25T09:29:23.677Z,3.10
2023-09-25T09:39:27.801Z,3.47
2023-09-25T09:44:29.757Z,3.45
2023-09-25T09:49:32.765Z,3.40
2023-09-25T09:54:39.302Z,3.53
2023-09-25T09:59:41.341Z,4.07
2023-09-25T10:10:04.910Z,3.70
2023-09-25T10:15:09.017Z,3.63
2023-09-25T10:20:36.121Z,3.88
2023-09-25T10:25:57.698Z,2.92
2023-09-25T10:31:00.622Z,2.75
2023-09-25T10:36:03.521Z,2.50
2023-09-25T10:41:08.736Z,2.90
2023-09-25T10:46:10.949Z,2.70
2023-09-25T10:51:13.014Z,2.70
2023-09-25T11:01:19.096Z,2.90
2023-09-25T11:06:21.037Z,2.75
2023-09-25T11:16:26.624Z,2.53
2023-09-25T11:21:31.587Z,2.45
2023-09-25T11:26:36.683Z,2.30
2023-09-25T11:31:50.150Z,2.38
2023-09-25T11:37:01.222Z,3.67
2023-09-25T11:42:03.636Z,2.50
2023-09-25T11:52:12.209Z,2.70
2023-09-25T11:57:14.090Z,2.13
2023-09-25T12:07:17.777Z,2.38
2023-09-25T12:17:21.533Z,1.85
2023-09-25T12:22:23.543Z,1.80
2023-09-25T12:32:27.258Z,2.40
2023-09-25T12:42:42.841Z,2.60
2023-09-25T12:47:49.721Z,3.20
2023-09-25T12:57:53.905Z,3.00
2023-09-25T13:02:56.169Z,1.92
2023-09-25T13:07:58.231Z,2.05
2023-09-25T13:13:00.294Z,2.05
2023-09-25T13:18:02.487Z,2.15
2023-09-25T13:23:04.828Z,1.95
2023-09-25T13:28:06.945Z,2.28
2023-09-25T13:33:09.198Z,2.67
2023-09-25T13:38:11.502Z,3.00
2023-09-25T13:43:13.558Z,2.83
2023-09-25T13:53:17.334Z,1.80
2023-09-25T14:03:21.898Z,2.15
2023-09-25T14:08:24.165Z,1.95
2023-09-25T14:13:26.433Z,2.13
2023-09-25T14:18:28.401Z,2.67
2023-09-25T14:28:32.272Z,2.38
2023-09-25T14:33:34.949Z,2.80
2023-09-25T14:38:37.126Z,2.90
2023-09-25T14:48:41.012Z,2.85
2023-09-25T14:58:45.105Z,3.25
2023-09-25T15:03:47.305Z,3.00
2023-09-25T15:08:49.567Z,3.22
2023-09-25T15:13:52.056Z,2.97
2023-09-25T15:18:54.119Z,3.20
2023-09-25T15:23:56.171Z,3.00
2023-09-25T15:28:58.263Z,3.33
2023-09-25T15:34:00.589Z,3.50
2023-09-25T15:39:02.988Z,3.38
2023-09-25T15:44:05.280Z,4.15
2023-09-25T15:49:07.420Z,3.60
2023-09-25T15:54:09.606Z,6.97
2023-09-25T15:59:11.615Z,4.45
2023-09-25T16:04:13.796Z,6.50
2023-09-25T16:14:18.618Z,4.90
2023-09-25T16:19:20.659Z,4.78
2023-09-25T16:24:22.730Z,4.40
2023-09-25T16:29:24.743Z,12.52
2023-09-25T16:34:26.850Z,4.60
2023-09-25T16:39:32.057Z,3.72
2023-09-25T16:44:36.278Z,3.95
2023-09-25T16:49:38.250Z,4.30
2023-09-25T16:54:40.390Z,3.95
2023-09-25T16:59:43.140Z,3.72
2023-09-25T17:04:45.293Z,3.53
2023-09-25T17:09:47.608Z,4.00
2023-09-25T17:14:49.774Z,4.15
2023-09-25T17:19:51.813Z,3.85
2023-09-25T17:24:53.936Z,3.80
2023-09-25T17:29:56.034Z,4.45
2023-09-25T17:34:58.014Z,4.68
2023-09-25T17:40:00.189Z,4.40
2023-09-25T17:50:04.325Z,4.35
2023-09-25T18:00:08.924Z,3.33
2023-09-25T18:05:35.870Z,3.72
2023-09-25T18:23:00.004Z,4.35
2023-09-25T18:28:16.131Z,3.92
2023-09-25T18:33:47.500Z,4.65
2023-09-25T18:44:22.502Z,4.80
2023-09-25T18:49:24.490Z,4.72
2023-09-25T18:54:42.484Z,4.78
2023-09-25T18:59:51.346Z,4.65
2023-09-25T19:04:54.429Z,4.53
2023-09-25T19:09:56.938Z,4.75
2023-09-25T19:14:59.183Z,5.50
2023-09-25T19:20:01.081Z,5.30
2023-09-25T19:25:04.215Z,5.10
2023-09-25T19:30:06.765Z,4.80
2023-09-25T19:35:09.192Z,5.32
2023-09-25T19:40:11.791Z,5.20
2023-09-25T19:45:13.807Z,4.78
2023-09-25T19:50:15.810Z,5.05
2023-09-25T19:55:17.805Z,5.45
2023-09-25T20:00:19.868Z,5.28
2023-09-25T20:05:21.879Z,5.18
2023-09-25T20:10:23.907Z,5.18
2023-09-25T20:15:25.973Z,5.28
2023-09-25T20:20:28.008Z,5.55
2023-09-25T20:25:29.971Z,5.40
2023-09-25T20:30:31.865Z,5.38
2023-09-25T20:35:35.005Z,5.70
2023-09-25T20:40:36.896Z,5.70
2023-09-25T20:45:38.969Z,5.82
2023-09-25T20:50:41.734Z,6.65
2023-09-25T20:55:43.707Z,6.50
2023-09-25T21:00:45.706Z,5.90
2023-09-25T21:05:47.726Z,5.05
2023-09-25T21:10:49.680Z,5.50
2023-09-25T21:15:51.715Z,5.28
2023-09-25T21:20:53.705Z,5.45
2023-09-25T21:25:58.793Z,5.05
2023-09-25T21:31:00.843Z,5.72
2023-09-25T21:36:02.970Z,5.38
2023-09-25T21:41:05.068Z,6.30
2023-09-25T21:46:07.696Z,5.60
2023-09-25T21:51:09.955Z,6.05
2023-09-25T22:01:13.858Z,6.15
2023-09-25T22:06:16.032Z,6.32
2023-09-25T22:11:17.962Z,6.57
2023-09-25T22:16:19.987Z,5.93
2023-09-25T22:21:22.065Z,5.88
2023-09-25T22:26:23.988Z,6.47
2023-09-25T22:31:26.146Z,6.50
2023-09-25T22:36:28.208Z,5.85
2023-09-25T22:41:30.224Z,5.80
2023-09-25T22:46:32.279Z,6.25
2023-09-25T22:51:34.287Z,6.30
2023-09-25T22:56:36.290Z,6.57
2023-09-25T23:01:38.376Z,7.70
2023-09-25T23:06:40.600Z,7.00
2023-09-25T23:11:42.622Z,5.88
2023-09-25T23:16:44.681Z,7.20
2023-09-25T23:21:46.804Z,6.45
2023-09-25T23:26:48.773Z,7.05
2023-09-25T23:31:50.725Z,7.53
2023-09-25T23:36:52.688Z,7.60
2023-09-25T23:41:56.840Z,7.50
2023-09-25T23:46:58.841Z,7.78
2023-09-25T23:52:00.911Z,8.00
2023-09-25T23:57:03.152Z,7.70
